Time;durP1;ratioP1;P1;durP2;ratioP2;P2;SDS_P1;SDS_P2;PMS_P1;PMS_P2;Temp;Humidity;BMP_temperature;BMP_pressure;BME280_temperature;BME280_humidity;BME280_pressure;Samples;Min_cycle;Max_cycle;Signal;HPM_P1;HPM_P2
2023/03/22 00:00:18;;;;;;;0.75;0.20;;;;;;;18.32;32.47;99696.09;4965323;28;20058;-79
2023/03/22 00:02:47;;;;;;;0.68;0.30;;;;;;;18.15;32.26;99694.66;4962894;28;20061;-77
2023/03/22 00:05:16;;;;;;;0.77;0.50;;;;;;;18.00;34.03;99693.22;4966964;28;20555;-81
2023/03/22 00:07:45;;;;;;;0.60;0.40;;;;;;;17.87;33.33;99688.22;4963350;28;20042;-82
2023/03/22 00:10:13;;;;;;;0.50;0.40;;;;;;;17.88;33.72;99687.31;4958980;28;20134;-80
2023/03/22 00:12:42;;;;;;;1.52;0.60;;;;;;;17.89;34.37;99681.19;4964215;28;20047;-83
2023/03/22 00:15:14;;;;;;;0.52;0.30;;;;;;;17.88;33.46;99669.84;4959781;28;20523;-83
2023/03/22 00:17:43;;;;;;;0.43;0.30;;;;;;;17.79;34.00;99676.06;4958010;28;20055;-83
2023/03/22 00:20:13;;;;;;;0.70;0.50;;;;;;;17.83;33.37;99676.94;4957381;28;20098;-80
2023/03/22 00:22:42;;;;;;;2.00;0.75;;;;;;;17.90;34.74;99672.44;4956355;28;20047;-82
2023/03/22 00:25:11;;;;;;;1.13;0.50;;;;;;;17.90;33.04;99672.44;4964182;28;20134;-82
2023/03/22 00:27:40;;;;;;;1.42;0.50;;;;;;;17.85;34.01;99659.44;4968368;28;20127;-80
2023/03/22 00:30:12;;;;;;;0.60;0.50;;;;;;;17.94;33.44;99663.66;4959769;28;20058;-81
2023/03/22 00:32:41;;;;;;;;;;;;;;;17.97;33.58;99671.44;4962287;28;20492;-82
2023/03/22 00:35:11;;;;;;;0.55;0.50;;;;;;;17.96;34.54;99672.34;4966782;28;19932;-79
2023/03/22 00:37:50;;;;;;;3.00;0.47;;;;;;;17.75;34.81;99671.81;4968636;28;20078;-82
2023/03/22 00:40:19;;;;;;;0.60;0.40;;;;;;;17.76;34.77;99668.28;4964468;28;20142;-82
2023/03/22 00:42:47;;;;;;;1.13;0.40;;;;;;;17.73;33.69;99665.72;4968223;28;20101;-83
2023/03/22 00:45:18;;;;;;;0.65;0.40;;;;;;;17.47;32.92;99673.13;4970538;28;20081;-80
2023/03/22 00:47:47;;;;;;;1.15;0.65;;;;;;;17.38;34.88;99663.69;4968608;28;20468;-78
2023/03/22 00:50:16;;;;;;;1.08;0.60;;;;;;;17.44;35.09;99660.97;4964787;28;20051;-79
2023/03/22 00:52:45;;;;;;;1.60;0.63;;;;;;;17.46;34.14;99656.59;4955662;28;20049;-80
2023/03/22 00:55:14;;;;;;;0.95;0.50;;;;;;;17.48;34.37;99664.41;4967598;28;20092;-78
2023/03/22 00:57:42;;;;;;;1.50;0.68;;;;;;;17.47;34.20;99662.69;4964325;28;20047;-81
2023/03/22 01:00:14;;;;;;;1.17;0.88;;;;;;;17.47;34.49;99670.53;4967581;28;20456;-80
2023/03/22 01:02:45;;;;;;;0.88;0.60;;;;;;;17.45;34.86;99664.44;4967818;28;20141;-78
2023/03/22 01:05:15;;;;;;;0.73;0.50;;;;;;;17.42;34.76;99657.53;4957884;28;20138;-80
2023/03/22 01:07:44;;;;;;;1.10;0.55;;;;;;;17.36;34.15;99663.72;4965806;28;20078;-81
2023/03/22 01:10:13;;;;;;;0.60;0.40;;;;;;;17.31;35.05;99668.13;4962179;28;20102;-83
2023/03/22 01:12:42;;;;;;;1.00;0.57;;;;;;;17.16;35.13;99665.78;4963172;28;20481;-81
2023/03/22 01:15:11;;;;;;;0.65;0.40;;;;;;;17.11;35.69;99670.19;4960657;28;20050;-81
2023/03/22 01:17:40;;;;;;;1.50;0.60;;;;;;;17.07;35.24;99664.16;4966232;28;20042;-82
2023/03/22 01:20:12;;;;;;;3.33;0.65;;;;;;;17.03;35.36;99661.63;4967512;28;20461;-78
2023/03/22 01:22:41;;;;;;;0.93;0.52;;;;;;;16.94;35.62;99667.81;4961069;28;20047;-77
2023/03/22 01:25:10;;;;;;;0.95;0.65;;;;;;;16.88;35.84;99675.75;4959154;28;20520;-77
2023/03/22 01:27:39;;;;;;;1.27;0.60;;;;;;;16.83;36.35;99669.72;4954080;28;20057;-77
2023/03/22 01:30:09;;;;;;;3.22;0.40;;;;;;;16.77;36.31;99670.66;4940669;28;20051;-77
2023/03/22 01:32:38;;;;;;;1.90;0.45;;;;;;;16.72;36.32;99683.78;4940857;28;20050;-79
2023/03/22 01:35:08;;;;;;;2.80;0.70;;;;;;;16.62;35.84;99686.50;4943588;28;20051;-77
2023/03/22 01:37:38;;;;;;;0.77;0.50;;;;;;;16.43;36.28;99691.09;4943838;28;20577;-77
2023/03/22 01:40:09;;;;;;;0.50;0.32;;;;;;;16.38;36.60;99691.13;4951644;28;20107;-76
2023/03/22 01:42:37;;;;;;;1.02;0.50;;;;;;;16.31;36.78;99692.94;4942373;28;20055;-77
2023/03/22 01:45:37;;;;;;;0.40;0.40;;;;;;;16.30;36.84;99700.78;4944611;28;20047;-78
2023/03/22 01:48:18;;;;;;;1.02;0.60;;;;;;;16.26;37.70;99704.31;4888041;28;20107;-79
2023/03/22 01:50:54;;;;;;;1.10;0.60;;;;;;;16.21;37.93;99706.09;4950142;28;20118;-80
2023/03/22 01:53:26;;;;;;;1.05;0.70;;;;;;;16.07;38.76;99688.84;4947662;28;20132;-77
2023/03/22 01:55:58;;;;;;;0.98;0.50;;;;;;;16.03;38.97;99694.97;4945070;28;20068;-79
2023/03/22 01:58:26;;;;;;;0.82;0.68;;;;;;;15.99;39.73;99703.72;4945534;28;20126;-81
2023/03/22 02:00:55;;;;;;;0.75;0.52;;;;;;;15.92;39.48;99715.09;4943582;28;20050;-78
2023/03/22 02:03:35;;;;;;;0.80;0.60;;;;;;;15.85;40.09;99713.41;4948946;28;20125;-80
2023/03/22 02:06:05;;;;;;;1.85;0.88;;;;;;;15.63;39.15;99708.34;4949246;28;20130;-79
2023/03/22 02:08:35;;;;;;;2.55;0.80;;;;;;;15.55;39.76;99715.34;4946207;28;20063;-79
2023/03/22 02:11:05;;;;;;;0.95;0.65;;;;;;;15.49;40.67;99716.25;4950290;28;20058;-78
2023/03/22 02:13:47;;;;;;;2.05;0.68;;;;;;;15.43;40.41;99710.22;4949776;28;20050;-79
2023/03/22 02:16:23;;;;;;;;;;;;;;;15.26;40.29;99705.13;4945355;28;20102;-78
2023/03/22 02:19:09;;;;;;;0.93;0.55;;;;;;;15.24;40.60;99715.56;4945312;28;19927;-78
2023/03/22 02:22:02;;;;;;;1.50;0.60;;;;;;;15.15;40.79;99715.63;4951980;28;20707;-77
2023/03/22 02:25:02;;;;;;;1.88;0.95;;;;;;;15.05;41.37;99719.16;4946085;28;20051;-77
2023/03/22 02:27:55;;;;;;;1.02;0.57;;;;;;;14.94;41.67;99715.75;4954833;28;20212;-81
2023/03/22 02:30:50;;;;;;;1.38;0.60;;;;;;;14.78;41.99;99715.81;4950921;28;20047;-79
2023/03/22 02:33:44;;;;;;;1.58;0.90;;;;;;;14.74;42.66;99726.25;4967838;28;20046;-81
2023/03/22 02:36:42;;;;;;;1.73;0.65;;;;;;;14.64;42.41;99728.88;4966292;28;20074;-77
2023/03/22 02:39:42;;;;;;;0.98;0.70;;;;;;;14.57;42.61;99734.13;4963536;28;20053;-76
2023/03/22 02:42:26;;;;;;;4.25;0.80;;;;;;;14.51;43.69;99731.50;4964016;28;20050;-79
2023/03/22 02:45:02;;;;;;;0.93;0.68;;;;;;;14.41;43.82;99726.31;4967140;28;20054;-79
2023/03/22 02:47:40;;;;;;;3.80;1.65;;;;;;;14.37;43.72;99734.13;4967097;28;20058;-84
2023/03/22 02:50:14;;;;;;;1.50;0.77;;;;;;;14.27;44.37;99725.50;4970883;28;20057;-84
2023/03/22 02:52:49;;;;;;;1.33;0.70;;;;;;;14.22;44.31;99722.91;4970026;28;20062;-79
2023/03/22 02:55:26;;;;;;;2.65;1.17;;;;;;;14.17;44.71;99721.16;4964743;28;20050;-81
2023/03/22 02:58:00;;;;;;;2.30;1.13;;;;;;;14.12;44.46;99726.38;4965048;28;20131;-80
2023/03/22 03:00:29;;;;;;;2.63;0.93;;;;;;;14.05;44.39;99716.84;4963494;28;20051;-77
2023/03/22 03:03:01;;;;;;;1.90;0.80;;;;;;;13.97;45.48;99726.38;4966587;28;20091;-77
2023/03/22 03:05:34;;;;;;;1.13;0.80;;;;;;;13.93;45.33;99727.28;4967734;28;20043;-78
2023/03/22 03:08:03;;;;;;;;;;;;;;;13.88;45.90;99722.06;4968465;28;20063;-77
2023/03/22 03:10:37;;;;;;;1.92;0.90;;;;;;;13.82;45.75;99730.72;4971319;28;19922;-80
2023/03/22 03:13:14;;;;;;;1.67;1.08;;;;;;;13.76;45.75;99729.84;4970673;28;20050;-84
2023/03/22 03:15:46;;;;;;;4.85;1.00;;;;;;;13.71;45.70;99731.59;4967656;28;20126;-84
2023/03/22 03:18:27;;;;;;;1.70;1.00;;;;;;;13.68;45.71;99736.81;4963643;28;20100;-81
2023/03/22 03:21:03;;;;;;;1.52;0.80;;;;;;;13.64;45.42;99732.47;4964601;28;20059;-80
2023/03/22 03:23:40;;;;;;;1.75;0.80;;;;;;;13.60;45.35;99740.25;4970690;28;20051;-81
2023/03/22 03:26:18;;;;;;;2.38;1.08;;;;;;;13.58;46.31;99742.00;4966559;28;20686;-77
2023/03/22 03:28:52;;;;;;;1.55;0.98;;;;;;;13.56;46.08;99750.63;4953035;28;20118;-80
2023/03/22 03:31:32;;;;;;;0.95;0.70;;;;;;;13.54;46.44;99747.19;4949593;28;20062;-82
2023/03/22 03:34:09;;;;;;;2.20;1.08;;;;;;;13.49;46.98;99751.50;4946963;29;20047;-77
2023/03/22 03:36:43;;;;;;;1.23;0.80;;;;;;;13.43;46.42;99741.97;4944978;28;20061;-80
2023/03/22 03:39:13;;;;;;;2.45;0.70;;;;;;;13.40;46.93;99753.22;4943823;28;20066;-79
2023/03/22 03:41:47;;;;;;;1.80;1.15;;;;;;;13.33;46.74;99755.78;4947694;28;20047;-80
2023/03/22 03:44:17;;;;;;;4.43;1.17;;;;;;;13.28;46.71;99747.13;4944262;28;20062;-77
2023/03/22 03:46:48;;;;;;;1.77;0.88;;;;;;;13.24;47.46;99750.53;4943378;28;20489;-80
2023/03/22 03:49:18;;;;;;;1.15;1.02;;;;;;;13.19;47.21;99748.81;4946035;28;20062;-82
2023/03/22 03:51:49;;;;;;;3.70;1.08;;;;;;;13.13;47.01;99740.16;4943756;28;20047;-82
2023/03/22 03:54:18;;;;;;;3.40;1.00;;;;;;;13.06;47.24;99738.41;4953591;28;20055;-79
2023/03/22 03:56:49;;;;;;;3.90;1.23;;;;;;;13.06;47.68;99757.44;4951165;28;20046;-80
2023/03/22 03:59:19;;;;;;;2.10;1.10;;;;;;;13.03;47.55;99757.41;4945116;28;20054;-80
2023/03/22 04:01:51;;;;;;;1.30;0.80;;;;;;;12.98;48.04;99761.72;4938385;28;20059;-80
2023/03/22 04:04:25;;;;;;;2.10;1.17;;;;;;;12.95;47.76;99759.13;4943630;28;20050;-81
2023/03/22 04:06:55;;;;;;;1.13;0.85;;;;;;;12.84;48.15;99746.09;4950970;28;20130;-79
2023/03/22 04:09:24;;;;;;;2.05;0.75;;;;;;;12.89;48.19;99761.69;4944692;28;20627;-77
2023/03/22 04:11:55;;;;;;;2.47;1.27;;;;;;;12.86;47.89;99770.31;4948024;28;20062;-80
2023/03/22 04:14:24;;;;;;;3.50;1.08;;;;;;;12.85;48.13;99772.91;4946535;28;20052;-79
2023/03/22 04:16:54;;;;;;;1.50;1.08;;;;;;;12.79;48.06;99772.03;4951979;28;20734;-82
2023/03/22 04:19:23;;;;;;;1.92;0.98;;;;;;;12.75;48.05;99772.88;4948524;28;20043;-79
2023/03/22 04:21:53;;;;;;;2.88;1.17;;;;;;;12.73;48.61;99773.72;4948413;28;20098;-78
2023/03/22 04:24:22;;;;;;;1.35;0.90;;;;;;;12.66;48.69;99775.41;4951403;28;20047;-81
2023/03/22 04:26:51;;;;;;;1.52;0.93;;;;;;;12.67;48.63;99789.28;4947091;28;20052;-80
2023/03/22 04:29:23;;;;;;;1.98;1.10;;;;;;;12.64;49.30;99784.06;4947481;28;20812;-77
2023/03/22 04:31:52;;;;;;;1.17;0.88;;;;;;;12.60;48.87;99793.56;4946688;28;20057;-77
2023/03/22 04:34:21;;;;;;;2.65;0.95;;;;;;;12.55;49.07;99787.47;4942219;28;20074;-80
2023/03/22 04:36:49;;;;;;;3.00;1.17;;;;;;;12.55;49.22;99788.34;4946081;28;20057;-78
2023/03/22 04:39:18;;;;;;;1.95;1.10;;;;;;;12.48;49.37;99785.69;4945605;28;20051;-79
2023/03/22 04:41:47;;;;;;;2.03;1.25;;;;;;;12.51;49.58;99796.13;4949463;28;20050;-78
2023/03/22 04:44:16;;;;;;;2.15;1.23;;;;;;;12.47;49.60;99796.94;4947936;29;20069;-78
2023/03/22 04:46:47;;;;;;;1.75;1.00;;;;;;;12.43;49.83;99800.38;4939735;29;20110;-78
2023/03/22 04:49:16;;;;;;;2.95;1.33;;;;;;;12.38;49.94;99808.13;4943911;28;20039;-78
2023/03/22 04:51:45;;;;;;;2.88;1.05;;;;;;;12.34;50.07;99801.16;4940571;28;20093;-78
2023/03/22 04:54:13;;;;;;;2.70;1.45;;;;;;;12.32;49.55;99813.25;4946584;28;20047;-77
2023/03/22 04:56:42;;;;;;;1.90;1.17;;;;;;;12.30;50.28;99810.66;4944108;28;20082;-78
2023/03/22 04:59:11;;;;;;;2.15;1.38;;;;;;;12.27;50.06;99810.63;4941420;29;20519;-77
2023/03/22 05:01:41;;;;;;;5.85;1.35;;;;;;;12.27;49.68;99817.53;4945204;28;20098;-78
2023/03/22 05:04:11;;;;;;;4.07;1.52;;;;;;;12.24;49.89;99815.81;4947356;28;20105;-78
2023/03/22 05:06:40;;;;;;;2.45;1.35;;;;;;;12.22;49.91;99816.66;4946129;28;20110;-77
2023/03/22 05:09:09;;;;;;;2.22;1.20;;;;;;;12.21;50.33;99814.91;4943161;28;20062;-77
2023/03/22 05:11:39;;;;;;;2.72;1.30;;;;;;;12.18;50.48;99820.94;4949760;28;20051;-77
2023/03/22 05:14:09;;;;;;;1.98;1.33;;;;;;;12.14;50.61;99817.47;4944345;28;20060;-77
2023/03/22 05:16:39;;;;;;;3.40;1.23;;;;;;;12.13;50.83;99817.44;4937644;28;20146;-77
2023/03/22 05:19:12;;;;;;;2.20;1.40;;;;;;;12.11;51.19;99821.75;4947183;28;20097;-77
2023/03/22 05:21:42;;;;;;;2.03;1.38;;;;;;;12.08;51.07;99825.19;4946681;28;20143;-77
2023/03/22 05:24:12;;;;;;;4.55;1.33;;;;;;;12.04;52.53;99832.91;4947982;28;20155;-76
2023/03/22 05:26:42;;;;;;;2.08;1.60;;;;;;;11.94;51.88;99832.84;4950479;28;20142;-77
2023/03/22 05:29:11;;;;;;;3.72;1.30;;;;;;;11.83;52.27;99842.19;4946070;28;20065;-76
2023/03/22 05:31:40;;;;;;;3.45;1.60;;;;;;;11.75;52.41;99846.47;4945880;28;20051;-76
2023/03/22 05:34:10;;;;;;;2.80;1.55;;;;;;;11.65;52.10;99849.78;4941120;28;20135;-76
2023/03/22 05:36:39;;;;;;;2.80;1.65;;;;;;;11.61;52.78;99855.78;4947718;28;20054;-76
2023/03/22 05:39:07;;;;;;;2.38;1.48;;;;;;;11.58;53.04;99853.19;4948047;28;20113;-77
2023/03/22 05:41:36;;;;;;;3.65;1.40;;;;;;;11.55;52.51;99848.84;4945255;28;20771;-76
2023/03/22 05:44:05;;;;;;;3.35;1.50;;;;;;;11.53;52.59;99853.13;4952326;28;20728;-77
2023/03/22 05:46:34;;;;;;;4.00;1.75;;;;;;;11.52;52.56;99854.84;4950300;28;20149;-76
2023/03/22 05:49:03;;;;;;;2.75;1.42;;;;;;;11.48;53.17;99858.25;4948101;28;20125;-75
2023/03/22 05:51:40;;;;;;;2.20;1.50;;;;;;;11.45;53.72;99854.75;4946418;28;20515;-77
2023/03/22 05:54:09;;;;;;;3.10;1.80;;;;;;;11.41;53.29;99859.03;4950038;28;20055;-77
2023/03/22 05:56:39;;;;;;;5.13;1.58;;;;;;;11.36;53.65;99857.22;4943699;28;20060;-77
2023/03/22 05:59:08;;;;;;;2.72;1.38;;;;;;;11.32;53.84;99856.34;4945791;28;20055;-76
2023/03/22 06:01:38;;;;;;;2.65;1.48;;;;;;;11.24;53.85;99853.63;4944886;28;20044;-77
2023/03/22 06:04:06;;;;;;;3.33;1.50;;;;;;;11.19;54.49;99859.63;4942738;28;20050;-76
2023/03/22 06:06:38;;;;;;;3.00;1.63;;;;;;;11.16;55.06;99863.06;4943286;28;20051;-76
2023/03/22 06:09:06;;;;;;;5.97;1.55;;;;;;;11.10;55.12;99861.25;4948125;28;20074;-76
2023/03/22 06:11:35;;;;;;;3.40;1.33;;;;;;;11.03;55.64;99859.41;4953770;28;20446;-76
2023/03/22 06:14:04;;;;;;;4.78;1.42;;;;;;;10.97;55.62;99859.38;4951565;28;20043;-76
2023/03/22 06:16:33;;;;;;;4.40;1.80;;;;;;;10.90;55.97;99852.34;4963468;28;20588;-76
2023/03/22 06:19:02;;;;;;;2.75;1.60;;;;;;;10.89;55.54;99858.38;4949877;28;20047;-76
2023/03/22 06:21:30;;;;;;;2.95;1.67;;;;;;;10.87;55.70;99854.88;4947221;28;20485;-76
2023/03/22 06:24:01;;;;;;;4.15;1.35;;;;;;;10.83;56.29;99853.09;4947449;28;20055;-76
2023/03/22 06:26:30;;;;;;;8.27;2.00;;;;;;;10.80;56.62;99860.84;4952683;28;20062;-76
2023/03/22 06:29:02;;;;;;;5.35;1.52;;;;;;;10.76;56.57;99864.22;4968805;28;20059;-76
2023/03/22 06:31:30;;;;;;;3.50;1.70;;;;;;;10.71;56.45;99858.97;4966086;28;20061;-77
2023/03/22 06:33:59;;;;;;;3.47;1.75;;;;;;;10.67;58.06;99855.50;4971305;28;20063;-76
2023/03/22 06:36:28;;;;;;;2.28;1.23;;;;;;;10.63;57.37;99864.06;4966137;28;20054;-76
2023/03/22 06:38:57;;;;;;;2.13;1.67;;;;;;;10.52;57.92;99850.09;4966181;28;20552;-76
2023/03/22 06:41:28;;;;;;;2.67;1.50;;;;;;;10.53;57.66;99856.13;4965086;28;20151;-76
2023/03/22 06:43:57;;;;;;;4.22;2.00;;;;;;;10.46;58.03;99860.31;4970986;28;20101;-76
2023/03/22 06:46:25;;;;;;;2.45;1.27;;;;;;;10.42;58.46;99851.66;4969839;28;20813;-76
2023/03/22 06:48:54;;;;;;;3.83;1.48;;;;;;;10.40;58.61;99853.34;4968758;28;20042;-76
2023/03/22 06:51:23;;;;;;;3.97;1.00;;;;;;;10.38;59.19;99849.88;4968664;28;20086;-76
2023/03/22 06:53:52;;;;;;;5.65;1.67;;;;;;;10.38;59.10;99854.19;4970843;28;20539;-76
2023/03/22 06:56:20;;;;;;;3.38;1.30;;;;;;;10.36;59.21;99855.88;4969565;28;20062;-76
2023/03/22 06:58:51;;;;;;;4.72;1.52;;;;;;;10.34;59.79;99855.84;4971457;28;20150;-76
2023/03/22 07:01:19;;;;;;;5.80;1.75;;;;;;;10.32;60.34;99856.66;4973259;28;20046;-75
2023/03/22 07:03:48;;;;;;;4.32;1.98;;;;;;;10.30;60.76;99866.97;4971313;28;20082;-75
2023/03/22 07:06:17;;;;;;;6.03;1.38;;;;;;;10.23;61.20;99870.28;4962679;28;20054;-75
2023/03/22 07:08:46;;;;;;;3.28;1.30;;;;;;;10.16;61.14;99874.47;4963090;28;20055;-75
2023/03/22 07:11:15;;;;;;;2.53;1.67;;;;;;;10.10;61.75;99871.78;4964356;28;20213;-76
2023/03/22 07:13:44;;;;;;;5.75;1.60;;;;;;;10.07;61.98;99872.59;4967720;28;20039;-75
2023/03/22 07:16:14;;;;;;;10.25;1.63;;;;;;;10.07;62.26;99875.16;4972279;28;20050;-75
2023/03/22 07:18:43;;;;;;;2.22;1.55;;;;;;;10.06;63.19;99872.56;4968836;28;20172;-76
2023/03/22 07:21:11;;;;;;;7.20;1.70;;;;;;;10.06;63.81;99875.16;4969617;28;20118;-75
2023/03/22 07:23:40;;;;;;;3.58;1.70;;;;;;;10.06;62.88;99875.16;4971909;28;20114;-76
2023/03/22 07:26:09;;;;;;;2.50;1.20;;;;;;;10.02;63.16;99873.34;4964844;28;20193;-76
2023/03/22 07:28:40;;;;;;;3.75;1.13;;;;;;;9.99;64.21;99878.50;4968304;28;20059;-76
2023/03/22 07:31:11;;;;;;;2.15;1.20;;;;;;;9.95;64.39;99872.38;4968651;28;20055;-76
2023/03/22 07:33:42;;;;;;;6.22;1.58;;;;;;;9.93;66.50;99868.91;4971413;28;20056;-76
2023/03/22 07:36:12;;;;;;;3.60;1.55;;;;;;;9.89;66.48;99877.44;4963873;28;20055;-76
2023/03/22 07:38:40;;;;;;;3.10;1.25;;;;;;;9.89;67.68;99886.91;4968469;28;20061;-76
2023/03/22 07:41:09;;;;;;;3.15;1.52;;;;;;;9.88;68.87;99875.69;4970180;28;20047;-76
2023/03/22 07:43:38;;;;;;;3.60;1.52;;;;;;;9.89;69.05;99886.91;4963987;28;20046;-76
2023/03/22 07:46:07;;;;;;;2.20;1.25;;;;;;;9.89;68.90;99886.91;4961997;28;20051;-76
2023/03/22 07:48:37;;;;;;;2.58;1.27;;;;;;;9.87;69.43;99886.88;4960990;28;20138;-76
2023/03/22 07:51:08;;;;;;;4.07;1.08;;;;;;;9.85;69.62;99881.69;4969700;28;20061;-78
2023/03/22 07:53:37;;;;;;;1.42;0.90;;;;;;;9.83;69.91;99882.50;4968311;28;20130;-76
2023/03/22 07:56:06;;;;;;;1.83;1.20;;;;;;;9.79;70.34;99873.81;4970378;28;20043;-78
2023/03/22 07:58:35;;;;;;;1.77;1.17;;;;;;;9.78;70.42;99882.41;4964473;28;20493;-78
2023/03/22 08:01:07;;;;;;;2.33;1.20;;;;;;;9.78;70.39;99885.00;4969018;28;20129;-78
2023/03/22 08:03:36;;;;;;;2.20;1.20;;;;;;;9.77;70.79;99887.53;4967150;28;20090;-78
2023/03/22 08:06:07;;;;;;;2.75;1.20;;;;;;;9.75;71.84;99891.81;4969965;28;20055;-78
2023/03/22 08:08:37;;;;;;;1.95;1.02;;;;;;;9.75;71.31;99890.09;4968952;28;20515;-77
2023/03/22 08:11:07;;;;;;;4.47;1.30;;;;;;;9.74;72.53;99880.63;4967676;28;20074;-78
2023/03/22 08:13:36;;;;;;;5.68;1.52;;;;;;;9.73;71.82;99884.03;4966948;28;20412;-78
2023/03/22 08:16:05;;;;;;;4.25;1.85;;;;;;;9.73;72.45;99889.19;4962781;28;20050;-77
2023/03/22 08:18:34;;;;;;;4.38;1.17;;;;;;;9.78;71.80;99889.28;4968339;28;20051;-76
2023/03/22 08:21:03;;;;;;;2.58;1.20;;;;;;;9.78;72.25;99886.69;4963423;28;20071;-76
2023/03/22 08:23:34;;;;;;;3.28;1.33;;;;;;;9.80;71.85;99877.25;4966366;28;20461;-76
2023/03/22 08:26:02;;;;;;;4.18;1.35;;;;;;;9.79;72.28;99875.53;4971615;28;20043;-76
2023/03/22 08:28:31;;;;;;;3.58;1.13;;;;;;;9.81;71.95;99885.06;4967651;28;20050;-76
2023/03/22 08:31:03;;;;;;;2.42;1.38;;;;;;;9.82;72.62;99885.91;4963407;28;20097;-76
2023/03/22 08:33:32;;;;;;;2.43;1.10;;;;;;;9.82;71.78;99886.78;4968930;28;20051;-76
2023/03/22 08:36:07;;;;;;;2.60;1.45;;;;;;;9.82;72.44;99885.91;4963352;28;20363;-76
2023/03/22 08:38:37;;;;;;;3.17;1.60;;;;;;;9.80;72.66;99891.06;4969900;28;20054;-76
2023/03/22 08:41:06;;;;;;;2.13;1.20;;;;;;;9.82;71.61;99886.78;4968600;28;20042;-76
2023/03/22 08:43:35;;;;;;;4.95;1.20;;;;;;;9.82;70.65;99889.38;4968543;28;20051;-76
2023/03/22 08:46:03;;;;;;;2.17;1.38;;;;;;;9.82;71.26;99898.84;4964055;28;20051;-76
2023/03/22 08:48:33;;;;;;;2.85;1.45;;;;;;;9.73;72.31;99894.34;4967893;28;20106;-76
2023/03/22 08:51:03;;;;;;;4.78;1.58;;;;;;;9.70;71.02;99902.06;4971034;28;20047;-76
2023/03/22 08:53:32;;;;;;;3.95;1.20;;;;;;;9.67;71.10;99896.84;4969740;28;20552;-76
2023/03/22 08:56:02;;;;;;;2.72;1.20;;;;;;;9.65;71.03;99899.38;4968808;28;20051;-76
2023/03/22 08:58:35;;;;;;;4.18;0.98;;;;;;;9.64;71.74;99908.00;4968266;28;20035;-76
2023/03/22 09:01:04;;;;;;;1.52;1.05;;;;;;;9.62;71.50;99904.50;4964704;28;20051;-76
2023/03/22 09:03:33;;;;;;;4.72;2.05;;;;;;;9.60;71.30;99905.31;4970690;28;20047;-75
2023/03/22 09:06:02;;;;;;;1.52;1.10;;;;;;;9.55;70.99;99912.97;4966721;28;20524;-76
2023/03/22 09:08:31;;;;;;;2.38;1.15;;;;;;;9.54;71.66;99916.38;4965329;28;20113;-76
2023/03/22 09:11:01;;;;;;;2.45;1.27;;;;;;;9.49;70.99;99914.56;4966921;28;20137;-76
2023/03/22 09:13:31;;;;;;;5.60;1.48;;;;;;;9.46;72.39;99906.72;4965804;28;20062;-76
2023/03/22 09:15:59;;;;;;;2.08;1.08;;;;;;;9.41;72.50;99904.94;4965428;28;20050;-76
2023/03/22 09:18:29;;;;;;;2.90;1.38;;;;;;;9.38;71.98;99910.03;4956390;28;20089;-78
2023/03/22 09:20:57;;;;;;;6.38;1.58;;;;;;;9.29;71.69;99898.66;4963568;28;20055;-78
2023/03/22 09:23:26;;;;;;;2.53;1.30;;;;;;;9.32;71.89;99920.25;4969448;28;20046;-76
2023/03/22 09:25:54;;;;;;;2.92;1.15;;;;;;;9.25;72.60;99912.31;4967914;28;20050;-75
2023/03/22 09:28:25;;;;;;;2.05;1.10;;;;;;;9.20;72.41;99905.34;4968379;28;20047;-75
2023/03/22 09:30:54;;;;;;;2.85;1.33;;;;;;;9.19;72.27;99918.25;4968748;28;20043;-75
2023/03/22 09:33:24;;;;;;;3.35;1.35;;;;;;;9.13;71.95;99918.09;4962404;28;20054;-74
2023/03/22 09:35:54;;;;;;;3.35;1.13;;;;;;;9.06;72.80;99913.66;4969119;28;20049;-75
2023/03/22 09:38:22;;;;;;;2.03;0.95;;;;;;;9.02;72.97;99916.16;4960342;28;20054;-75
2023/03/22 09:40:59;;;;;;;2.42;1.15;;;;;;;8.99;73.08;99925.53;4968370;28;20054;-76
2023/03/22 09:43:33;;;;;;;4.22;1.10;;;;;;;8.93;73.16;99921.13;4969173;28;20049;-75
2023/03/22 09:46:04;;;;;;;2.40;1.33;;;;;;;8.91;73.61;99920.22;4968996;28;20050;-75
2023/03/22 09:48:35;;;;;;;2.78;1.45;;;;;;;8.92;74.38;99919.34;4968415;28;20051;-75
2023/03/22 09:51:14;;;;;;;3.22;1.10;;;;;;;8.91;74.28;99922.78;4966473;28;20050;-76
2023/03/22 09:53:43;;;;;;;5.00;2.10;;;;;;;8.86;75.11;99924.38;4967816;28;20130;-76
2023/03/22 09:56:19;;;;;;;1.52;1.00;;;;;;;8.85;74.33;99922.63;4969196;28;20050;-75
2023/03/22 09:59:00;;;;;;;4.38;1.35;;;;;;;8.86;74.15;99929.53;4961538;28;20098;-75
2023/03/22 10:01:37;;;;;;;1.35;0.90;;;;;;;8.85;74.47;99921.78;4966344;28;20496;-75
2023/03/22 10:04:31;;;;;;;1.88;0.88;;;;;;;8.77;75.44;99921.56;4956989;28;20053;-76
2023/03/22 10:07:07;;;;;;;1.90;0.98;;;;;;;8.76;75.53;99927.59;4962907;28;20061;-75
2023/03/22 10:09:47;;;;;;;2.67;1.27;;;;;;;8.77;75.27;99921.56;4967485;28;20137;-75
2023/03/22 10:12:21;;;;;;;2.67;1.08;;;;;;;8.73;75.64;99927.53;4961871;28;20066;-76
2023/03/22 10:14:58;;;;;;;2.75;1.10;;;;;;;8.68;75.07;99927.41;4961401;28;20493;-76
2023/03/22 10:17:30;;;;;;;4.72;1.73;;;;;;;8.68;76.39;99931.69;4959355;28;20142;-75
2023/03/22 10:20:05;;;;;;;3.20;1.67;;;;;;;8.69;75.88;99933.44;4961711;28;20055;-75
2023/03/22 10:22:37;;;;;;;2.60;1.40;;;;;;;8.66;75.74;99929.09;4964706;28;20055;-76
2023/03/22 10:25:09;;;;;;;2.63;1.33;;;;;;;8.67;76.63;99928.25;4969491;28;20110;-78
2023/03/22 10:27:38;;;;;;;2.80;1.33;;;;;;;8.70;76.19;99930.00;4969945;28;20058;-75
2023/03/22 10:30:19;;;;;;;2.15;1.20;;;;;;;8.69;76.48;99926.56;4972378;28;20054;-76
2023/03/22 10:32:56;;;;;;;3.00;1.50;;;;;;;8.72;75.59;99929.22;4972290;28;20046;-76
2023/03/22 10:35:24;;;;;;;3.92;1.27;;;;;;;8.66;75.82;99915.28;4974496;28;20110;-76
2023/03/22 10:37:55;;;;;;;2.45;1.50;;;;;;;8.76;75.54;99925.88;4972065;28;20075;-76
2023/03/22 10:40:27;;;;;;;2.45;1.20;;;;;;;8.79;76.60;99918.19;4969779;28;20061;-75
2023/03/22 10:42:59;;;;;;;2.65;1.17;;;;;;;8.79;75.73;99917.34;4967394;28;20063;-75
2023/03/22 10:45:33;;;;;;;3.05;1.60;;;;;;;8.80;75.12;99924.25;4972490;28;20060;-75
2023/03/22 10:48:06;;;;;;;3.10;1.50;;;;;;;8.78;75.31;99923.34;4971572;28;20070;-75
2023/03/22 10:50:37;;;;;;;2.67;1.40;;;;;;;8.80;75.82;99924.25;4976067;28;20062;-76
2023/03/22 10:53:09;;;;;;;2.38;1.25;;;;;;;8.83;75.26;99921.72;4972342;28;20509;-75
2023/03/22 10:55:41;;;;;;;3.70;1.42;;;;;;;8.85;75.19;99925.22;4963816;28;20062;-76
2023/03/22 10:58:15;;;;;;;3.22;1.65;;;;;;;8.86;74.61;99923.50;4968785;28;20073;-76
2023/03/22 11:00:51;;;;;;;2.13;1.23;;;;;;;8.87;75.46;99922.69;4969309;28;20074;-76
2023/03/22 11:03:29;;;;;;;4.32;1.38;;;;;;;8.88;74.46;99922.69;4973724;28;20507;-75
2023/03/22 11:06:02;;;;;;;2.63;1.75;;;;;;;8.88;74.73;99917.53;4968080;28;20050;-76
2023/03/22 11:08:40;;;;;;;3.03;1.45;;;;;;;8.89;74.55;99921.88;4966752;28;20078;-76
2023/03/22 11:11:18;;;;;;;2.70;1.77;;;;;;;8.90;74.81;99925.31;4970856;28;20054;-77
2023/03/22 11:13:56;;;;;;;4.03;1.48;;;;;;;8.88;74.89;99927.84;4964014;28;20043;-76
2023/03/22 11:16:27;;;;;;;4.43;1.70;;;;;;;8.88;75.12;99919.25;4963128;28;20532;-76
2023/03/22 11:18:58;;;;;;;7.15;1.85;;;;;;;8.86;75.27;99919.22;4967499;28;20050;-76
2023/03/22 11:21:31;;;;;;;5.00;1.48;;;;;;;8.84;76.49;99917.44;4971457;28;20058;-75
2023/03/22 11:24:03;;;;;;;2.63;1.40;;;;;;;8.80;76.31;99919.09;4969420;28;20650;-76
2023/03/22 11:26:35;;;;;;;2.55;1.25;;;;;;;8.81;76.27;99936.28;4970639;28;20797;-77
2023/03/22 11:29:08;;;;;;;1.52;1.13;;;;;;;8.77;76.20;99934.47;4970020;28;20055;-76
2023/03/22 11:31:55;;;;;;;1.50;1.10;;;;;;;8.76;76.34;99937.91;4968734;28;20069;-76
2023/03/22 11:34:26;;;;;;;3.13;1.30;;;;;;;8.74;76.94;99942.16;4967637;28;20059;-76
2023/03/22 11:36:57;;;;;;;1.80;1.00;;;;;;;8.74;76.42;99940.44;4969310;28;20129;-75
2023/03/22 11:39:30;;;;;;;2.85;1.38;;;;;;;8.73;76.45;99948.16;4965098;28;20536;-76
2023/03/22 11:42:02;;;;;;;2.65;1.20;;;;;;;8.73;76.52;99940.44;4963995;28;20410;-75
2023/03/22 11:44:36;;;;;;;2.83;1.23;;;;;;;8.73;77.50;99950.75;4969314;28;20054;-78
2023/03/22 11:47:09;;;;;;;6.50;1.23;;;;;;;8.73;76.71;99945.59;4966561;28;20138;-75
2023/03/22 11:49:45;;;;;;;3.05;1.15;;;;;;;8.73;76.73;99948.16;4965896;28;20903;-74
2023/03/22 11:52:20;;;;;;;2.80;1.27;;;;;;;8.71;76.34;99942.97;4968581;28;20042;-75
2023/03/22 11:55:01;;;;;;;2.28;1.33;;;;;;;8.72;77.49;99941.25;4961243;28;20174;-75
2023/03/22 11:57:32;;;;;;;2.22;1.15;;;;;;;8.75;77.11;99951.63;4968095;28;20066;-75